Carterton, United Kingdom
Current Conditions -  °F | °C
As of 7:50 AM on Thursday 18 Dec 2014 (Local Time) from EGVN Reporting Station
Overcast Overcast  
Wind Chill: 54°   Ceiling: 1000
Heat Index: 54°   Visibility: 6mi
Dew Point: 50°   Wind: 15mph
Humidity: 88%   Direction: 250°WSW
Pressure: 29.8"   Gusts: 29mph
Location:  51.76°N, 1.59°W
Report Text: EGVN 180750Z 25013G25KT 9999 OVC010 12/10 Q1009 NOSIG
Loading
Personal Weather Stations






























Interactive Weather Map New forecast layout! Learn more

10-Day Weather Forecast

Advertisements
Track Severe Weather on mobile